DEPPU EDWR-EDWE

Flight info

Callsign DEPPU
Flight time 0h 8m
Altitude 2500
Route VFR
Aircraft B36T/L-S/S

Departure

Time 2026-05-05 08:08
Airport Borkum Airport (EDWR)

Arrival

Time 2026-05-05 08:16
Airport Emden Airport (EDWE)
Time Latitude Longitude Altitude Speed Heading
2026-05-05 08:05 53.59780 6.70275 7 ft 0 kts 59°
2026-05-05 08:06 53.59786 6.70334 7 ft 12 kts 107°
2026-05-05 08:06 53.59733 6.70506 7 ft 20 kts 67°
2026-05-05 08:06 53.59762 6.70676 7 ft 16 kts 101°
2026-05-05 08:07 53.59672 6.70876 7 ft 23 kts 131°
2026-05-05 08:07 53.59660 6.70957 7 ft 0 kts 47°
2026-05-05 08:07 53.59691 6.71002 8 ft 10 kts 43°
2026-05-05 08:07 53.59676 6.71091 7 ft 26 kts 127°
2026-05-05 08:08 53.59349 6.71698 35 ft 107 kts 130°
2026-05-05 08:08 53.58802 6.72782 405 ft 133 kts 118°
2026-05-05 08:08 53.58225 6.74187 752 ft 156 kts 120°
2026-05-05 08:08 53.57534 6.75651 1023 ft 160 kts 125°
2026-05-05 08:09 53.56773 6.77064 1191 ft 166 kts 130°
2026-05-05 08:09 53.55959 6.78466 1348 ft 169 kts 128°
2026-05-05 08:09 53.55133 6.79905 1460 ft 171 kts 129°
2026-05-05 08:09 53.54307 6.81350 1446 ft 171 kts 128°
2026-05-05 08:10 53.53489 6.82806 1457 ft 169 kts 129°
2026-05-05 08:10 53.52657 6.84197 1476 ft 168 kts 130°
2026-05-05 08:10 53.51836 6.85549 1484 ft 167 kts 130°
2026-05-05 08:10 53.51004 6.86936 1445 ft 168 kts 130°
2026-05-05 08:11 53.50191 6.88291 1453 ft 165 kts 130°
2026-05-05 08:11 53.49379 6.89640 1467 ft 163 kts 130°
2026-05-05 08:11 53.48580 6.91000 1477 ft 163 kts 130°
2026-05-05 08:11 53.47781 6.92352 1483 ft 163 kts 129°
2026-05-05 08:12 53.47022 6.93758 1488 ft 162 kts 125°
2026-05-05 08:12 53.46317 6.95231 1490 ft 162 kts 121°
2026-05-05 08:12 53.45691 6.96814 1498 ft 163 kts 117°
2026-05-05 08:12 53.45074 6.98425 1509 ft 165 kts 116°
2026-05-05 08:13 53.44462 7.00053 1509 ft 165 kts 117°
2026-05-05 08:13 53.43866 7.01679 1498 ft 164 kts 117°
2026-05-05 08:13 53.43264 7.03294 1481 ft 163 kts 116°
2026-05-05 08:13 53.42675 7.04918 1477 ft 164 kts 116°
2026-05-05 08:14 53.42082 7.06567 1414 ft 167 kts 116°
2026-05-05 08:14 53.41483 7.08237 1331 ft 165 kts 115°
2026-05-05 08:14 53.40934 7.09901 1259 ft 162 kts 114°
2026-05-05 08:14 53.40395 7.11519 1188 ft 160 kts 113°
2026-05-05 08:15 53.39850 7.13143 1119 ft 159 kts 113°
2026-05-05 08:15 53.39314 7.14756 1050 ft 158 kts 112°
2026-05-05 08:15 53.38785 7.16379 941 ft 159 kts 110°
2026-05-05 08:15 53.38561 7.18172 717 ft 157 kts 88°
2026-05-05 08:16 53.38621 7.19947 377 ft 156 kts 76°
2026-05-05 08:16 53.38908 7.21603 84 ft 127 kts 71°
2026-05-05 08:16 53.39119 7.22691 3 ft 75 kts 71°
2026-05-05 08:16 53.39164 7.23115 8 ft 3 kts 191°
2026-05-05 08:17 53.39110 7.23096 7 ft 9 kts 189°
2026-05-05 08:17 53.39063 7.23084 6 ft 7 kts 188°
2026-05-05 08:17 53.38987 7.23071 3 ft 11 kts 163°
2026-05-05 08:17 53.38979 7.23121 3 ft 3 kts 12°